WetterOnline ( http://www.wetteronline.de )

Wetter aktuell Magdeburg

Aktuelles Wetter: Magdeburg (85m)

6-stündlich | Neueste Meldungen
Ortszeit Temperatur Wetter
Mo, 21.01. 13:00 -2.8° C leicht bewölkt
Mo, 21.01. 7:00 -6.6° C Nebel
Mo, 21.01. 1:00 -5.1° C Nebel
So, 20.01. 19:00 -4.2° C wolkenlos
So, 20.01. 13:00 -0.5° C wolkenlos
So, 20.01. 7:00 -7.0° C wolkenlos
So, 20.01. 1:00 -3.4° C wolkenlos
Sa, 19.01. 19:00 -0.5° C bedeckt
Ortszeit Temperatur Wetter
Mo, 21.01. 14:30 -1.9° C wolkenlos
Mo, 21.01. 14:20 -1.9° C wolkenlos
Mo, 21.01. 14:10 -2.2° C wolkenlos
Mo, 21.01. 14:00 -1.9° C wolkenlos
Mo, 21.01. 13:50 -1.9° C wolkenlos
Mo, 21.01. 13:40 -2.0° C fast wolkenlos
Mo, 21.01. 13:30 -2.3° C leicht bewölkt
Mo, 21.01. 13:00 -2.8° C leicht bewölkt
Mo, 21.01. 12:30 -3.3° C wolkig
Mo, 21.01. 12:00 -4.0° C leicht bewölkt
Mo, 21.01. 11:30 -3.7° C wolkig
Ortszeit Relative Feuchte Sichtweite
Mo, 21.01. 13:00 89% 2.7 km
Mo, 21.01. 7:00 93% 100 m
Mo, 21.01. 1:00 96% 100 m
So, 20.01. 19:00 89% 5.0 km
So, 20.01. 13:00 65% 12 km
So, 20.01. 7:00 92% 8 km
So, 20.01. 1:00 93% 6 km
Sa, 19.01. 19:00 86% 8 km
Ortszeit Relative Feuchte Sichtweite
Mo, 21.01. 14:30 86% 2.8 km
Mo, 21.01. 14:20 86% -
Mo, 21.01. 14:10 85% -
Mo, 21.01. 14:00 86% 2.7 km
Mo, 21.01. 13:50 86% -
Mo, 21.01. 13:40 87% -
Mo, 21.01. 13:30 87% 3.0 km
Mo, 21.01. 13:00 89% 2.7 km
Mo, 21.01. 12:30 88% 3.1 km
Mo, 21.01. 12:00 86% 3.8 km
Mo, 21.01. 11:30 87% 4.1 km
Ortszeit Niederschlagsmenge Niederschlagsart
Mo, 21.01. 13:00 0.0 l/m2 in 6 Std. -
Mo, 21.01. 7:00 0.0 l/m2 in 12 Std. -
Mo, 21.01. 1:00 0.0 l/m2 in 6 Std. -
So, 20.01. 19:00 0.0 l/m2 in 12 Std. -
So, 20.01. 13:00 0.0 l/m2 in 6 Std. -
So, 20.01. 7:00 0.0 l/m2 in 12 Std. -
So, 20.01. 1:00 0.0 l/m2 in 6 Std. -
Sa, 19.01. 19:00 0.0 l/m2 in 12 Std. -
Ortszeit Niederschlagsmenge Niederschlagsart
Mo, 21.01. 14:30 0.0 l/m2 in 1 Std. -
Mo, 21.01. 14:20 keine Meldung -
Mo, 21.01. 14:10 keine Meldung -
Mo, 21.01. 14:00 0.0 l/m2 in 1 Std. -
Mo, 21.01. 13:50 keine Meldung -
Mo, 21.01. 13:40 keine Meldung -
Mo, 21.01. 13:30 0.0 l/m2 in 1 Std. -
Mo, 21.01. 13:00 0.0 l/m2 in 1 Std. -
Mo, 21.01. 12:30 0.0 l/m2 in 1 Std. -
Mo, 21.01. 12:00 0.0 l/m2 in 1 Std. -
Mo, 21.01. 11:30 0.0 l/m2 in 1 Std. -
Ortszeit Stärke Spitze Richtung
km/h Bft. km/h Grad Sektor
Mo, 21.01. 13:00 7 2 14 160° S
Mo, 21.01. 7:00 6 1 9 170° S
Mo, 21.01. 1:00 2 1 9 40° NO
So, 20.01. 19:00 2 1 17 320° NW
So, 20.01. 13:00 4 1 11 70° O
So, 20.01. 7:00 4 1 11 70° O
So, 20.01. 1:00 7 2 11 90° O
Sa, 19.01. 19:00 6 1 15 80° O
Ortszeit Stärke Spitze Richtung
km/h Bft. km/h Grad Sektor
Mo, 21.01. 14:30 7 2 11 160° S
Mo, 21.01. 14:20 7 2 - 160° S
Mo, 21.01. 14:10 7 2 - 170° S
Mo, 21.01. 14:00 7 2 14 150° SO
Mo, 21.01. 13:50 7 2 - 150° SO
Mo, 21.01. 13:40 6 1 - 160° S
Mo, 21.01. 13:30 7 2 14 170° S
Mo, 21.01. 13:00 7 2 14 160° S
Mo, 21.01. 12:30 7 2 11 150° SO
Mo, 21.01. 12:00 6 1 11 170° S
Mo, 21.01. 11:30 4 1 7 120° SO
Ortszeit Untergrenze Bedeckung Gattung
total tief tief mittel hoch
Mo, 21.01. 13:00 7800 m 7/8 0/8 - - -
Mo, 21.01. 7:00 <30 m 8/8 8/8 - - -
Mo, 21.01. 1:00 <30 m 8/8 8/8 - - -
So, 20.01. 19:00 - 0/8 0/8 - - -
So, 20.01. 13:00 - 0/8 0/8 - - -
So, 20.01. 7:00 - 0/8 0/8 - - -
So, 20.01. 1:00 - 0/8 0/8 - - -
Sa, 19.01. 19:00 3900 m 8/8 8/8 - - -
Ortszeit Bedeckungsgrad in Achtel und Wolkenuntergrenze
Mo, 21.01. 14:30 keine Wolken
Mo, 21.01. 14:20 keine Wolken
Mo, 21.01. 14:10 keine Wolken
Mo, 21.01. 14:00 1(90m)
Mo, 21.01. 13:50 keine Wolken
Mo, 21.01. 13:40 1(7500m) 2(8100m)
Mo, 21.01. 13:30 2(7200m) 6(8400m) 6(8700m)
Mo, 21.01. 13:00 5(7800m) 7(8700m) 7(9000m)
Mo, 21.01. 12:30 1(90m) 8(8700m) 8(9000m)
Mo, 21.01. 12:00 7(9000m) 7(9000m)
Mo, 21.01. 11:30 7(9000m)
Ortszeit Luftdruck NN (hPa) Tendenz (hPa in 3 Std.)
Mo, 21.01. 13:00 1022 - 1,5
Mo, 21.01. 7:00 1024 - 0,1
Mo, 21.01. 1:00 1024 + 1,0
So, 20.01. 19:00 1022 + 1,3
So, 20.01. 13:00 1020 + 0,7
So, 20.01. 7:00 1018 0,0
So, 20.01. 1:00 1018 - 0,5
Sa, 19.01. 19:00 1019 - 0,5
Ortszeit Luftdruck NN (hPa) Tendenz (hPa in 3 Std.)
Mo, 21.01. 14:30 1022 - 2,2
Mo, 21.01. 14:20 1022 keine Meldung
Mo, 21.01. 14:10 1022 keine Meldung
Mo, 21.01. 14:00 1022 - 2,1
Mo, 21.01. 13:50 1022 keine Meldung
Mo, 21.01. 13:40 1022 keine Meldung
Mo, 21.01. 13:30 1022 - 1,7
Mo, 21.01. 13:00 1022 - 1,5
Mo, 21.01. 12:30 1023 - 1,1
Mo, 21.01. 12:00 1023 - 0,7
Mo, 21.01. 11:30 1024 - 0,1
Ortszeit Schneehöhe (cm)
Mo, 21.01. 13:00 0
Mo, 21.01. 7:00 0
Mo, 21.01. 1:00 0
So, 20.01. 19:00 0
So, 20.01. 13:00 0
So, 20.01. 7:00 0
So, 20.01. 1:00 0
Sa, 19.01. 19:00 0
Ortszeit Schneehöhe (cm)
Mo, 21.01. 14:30 0
Mo, 21.01. 14:20 0
Mo, 21.01. 14:10 0
Mo, 21.01. 14:00 0
Mo, 21.01. 13:50 0
Mo, 21.01. 13:40 0
Mo, 21.01. 13:30 0
Mo, 21.01. 13:00 0
Mo, 21.01. 12:30 0
Mo, 21.01. 12:00 0
Mo, 21.01. 11:30 0
Link zu dieser Seite / Seite empfehlen

Das Wetter in ...